createdAt,value
2022-12-08T00:03:05.115Z,2.357788
2022-12-08T00:06:30.199Z,2.37793
2022-12-08T00:09:55.520Z,2.357788
2022-12-08T00:13:20.830Z,2.418213
2022-12-08T00:16:46.141Z,2.448425
2022-12-08T00:20:11.405Z,2.357788
2022-12-08T00:23:36.658Z,2.408142
2022-12-08T00:27:01.945Z,2.37793
2022-12-08T00:30:27.221Z,2.267151
2022-12-08T00:33:52.493Z,2.277222
2022-12-08T00:37:17.746Z,2.226868
2022-12-08T00:40:43.053Z,2.156372
2022-12-08T00:44:08.298Z,2.13623
2022-12-08T00:47:33.604Z,1.985168
2022-12-08T00:50:58.871Z,2.025452
2022-12-08T00:54:24.137Z,2.116089
2022-12-08T00:57:49.430Z,2.166443
2022-12-08T01:01:14.718Z,2.247009
2022-12-08T01:04:39.965Z,2.236938
2022-12-08T01:08:05.239Z,2.297363
2022-12-08T01:11:30.485Z,2.357788
2022-12-08T01:14:59.235Z,2.388
2022-12-08T01:18:21.050Z,2.37793
2022-12-08T01:21:46.345Z,2.357788
2022-12-08T01:25:11.578Z,2.337646
2022-12-08T01:28:36.871Z,2.247009
2022-12-08T01:32:02.111Z,2.267151
2022-12-08T01:35:27.367Z,2.307434
2022-12-08T01:38:52.653Z,2.277222
2022-12-08T01:42:17.899Z,2.267151
2022-12-08T01:45:43.262Z,2.297363
2022-12-08T01:49:08.403Z,2.267151
2022-12-08T01:52:33.668Z,2.247009
2022-12-08T01:55:58.982Z,2.196655
2022-12-08T01:59:24.212Z,2.095947
2022-12-08T02:02:49.520Z,2.065735
2022-12-08T02:06:14.744Z,2.045593
2022-12-08T02:09:40.005Z,2.065735
2022-12-08T02:13:05.313Z,2.065735
2022-12-08T02:16:30.600Z,2.085876
2022-12-08T02:19:55.853Z,2.045593
2022-12-08T02:23:21.160Z,2.045593
2022-12-08T02:26:46.417Z,2.085876
2022-12-08T02:30:11.731Z,2.156372
2022-12-08T02:33:37.016Z,2.085876
2022-12-08T02:37:02.263Z,2.13623
2022-12-08T02:40:27.587Z,2.13623
2022-12-08T02:43:52.847Z,2.196655
2022-12-08T02:47:18.118Z,2.156372
2022-12-08T02:50:43.361Z,2.085876
2022-12-08T02:54:08.668Z,2.13623
2022-12-08T02:57:33.955Z,2.166443
2022-12-08T03:00:59.257Z,2.176514
2022-12-08T03:04:24.523Z,2.196655
2022-12-08T03:07:49.796Z,2.236938
2022-12-08T03:11:15.075Z,2.206726
2022-12-08T03:14:40.371Z,2.156372
2022-12-08T03:18:05.625Z,2.166443
2022-12-08T03:21:30.939Z,2.166443
2022-12-08T03:24:56.175Z,2.13623
2022-12-08T03:28:21.452Z,2.025452
2022-12-08T03:31:46.718Z,1.995239
2022-12-08T03:35:11.962Z,1.975098
2022-12-08T03:38:37.241Z,2.015381
2022-12-08T03:42:02.463Z,2.025452
2022-12-08T03:45:27.734Z,2.015381
2022-12-08T03:48:53.013Z,2.015381
2022-12-08T03:52:18.260Z,2.025452
2022-12-08T03:55:43.544Z,1.864319
2022-12-08T03:59:08.775Z,1.934814
2022-12-08T04:02:34.077Z,1.975098
2022-12-08T04:05:59.349Z,2.025452
2022-12-08T04:09:24.617Z,2.085876
2022-12-08T04:12:49.916Z,2.116089
2022-12-08T04:16:15.262Z,2.156372
2022-12-08T04:19:40.438Z,2.095947
2022-12-08T04:23:05.706Z,2.085876
2022-12-08T04:26:30.966Z,2.045593
2022-12-08T04:29:56.374Z,2.085876
2022-12-08T04:33:21.589Z,1.995239
2022-12-08T04:36:46.857Z,1.995239
2022-12-08T04:40:12.592Z,2.015381
2022-12-08T04:43:37.928Z,1.904602
2022-12-08T04:47:03.267Z,1.87439
2022-12-08T04:50:28.404Z,1.813965
2022-12-08T04:53:53.674Z,1.834106
2022-12-08T04:57:18.890Z,1.773682
2022-12-08T05:00:44.141Z,1.87439
2022-12-08T05:04:09.410Z,1.954956
2022-12-08T05:07:34.652Z,1.904602
2022-12-08T05:10:59.907Z,1.834106
2022-12-08T05:14:25.150Z,1.813965
2022-12-08T05:17:50.404Z,1.703186
2022-12-08T05:21:15.677Z,1.864319
2022-12-08T05:24:45.756Z,1.934814
2022-12-08T05:28:39.394Z,1.985168
2022-12-08T05:31:31.391Z,1.995239
2022-12-08T05:34:56.595Z,1.995239
2022-12-08T05:38:21.882Z,2.055664
2022-12-08T05:41:47.119Z,2.045593
2022-12-08T05:45:12.356Z,2.085876
2022-12-08T05:48:37.611Z,2.025452
2022-12-08T05:52:02.867Z,1.995239
2022-12-08T05:55:28.137Z,1.914673
2022-12-08T05:58:53.373Z,1.864319
2022-12-08T06:02:18.808Z,1.88446
2022-12-08T06:05:43.896Z,1.904602
2022-12-08T06:09:09.199Z,1.934814
2022-12-08T06:12:34.476Z,1.975098
2022-12-08T06:15:59.832Z,1.954956
2022-12-08T06:19:25.177Z,1.864319
2022-12-08T06:22:50.584Z,1.773682
2022-12-08T06:26:16.191Z,1.803894
2022-12-08T06:29:41.785Z,1.995239
2022-12-08T06:33:07.014Z,2.065735
2022-12-08T06:36:32.246Z,2.095947
2022-12-08T06:39:57.610Z,2.267151
2022-12-08T06:43:22.884Z,2.408142
2022-12-08T06:46:48.153Z,2.408142
2022-12-08T06:50:13.422Z,2.236938
2022-12-08T06:53:38.737Z,2.095947
2022-12-08T06:57:03.988Z,1.844177
2022-12-08T07:00:29.371Z,1.803894
2022-12-08T07:03:54.517Z,1.733398
2022-12-08T07:07:19.720Z,1.763611
2022-12-08T07:10:45.059Z,1.954956
2022-12-08T07:14:10.330Z,1.954956
2022-12-08T07:17:35.612Z,1.844177
2022-12-08T07:21:00.920Z,1.914673
2022-12-08T07:24:26.204Z,1.975098
2022-12-08T07:27:51.509Z,1.803894
2022-12-08T07:31:16.756Z,1.813965
2022-12-08T07:34:41.977Z,1.844177
2022-12-08T07:38:07.296Z,1.904602
2022-12-08T07:41:32.540Z,1.813965
2022-12-08T07:44:57.799Z,1.87439
2022-12-08T07:48:23.064Z,1.87439
2022-12-08T07:51:48.337Z,1.864319
2022-12-08T07:55:13.622Z,1.934814
2022-12-08T07:58:38.870Z,1.985168
2022-12-08T08:02:22.630Z,2.015381
2022-12-08T08:05:29.388Z,1.975098
2022-12-08T08:08:54.697Z,1.985168
2022-12-08T08:12:31.086Z,2.015381
2022-12-08T08:15:45.309Z,2.095947
2022-12-08T08:19:10.479Z,2.176514
2022-12-08T08:22:35.716Z,2.085876
2022-12-08T08:26:01.035Z,2.156372
2022-12-08T08:29:26.300Z,2.196655
2022-12-08T08:32:51.510Z,2.065735
2022-12-08T08:36:16.749Z,2.156372
2022-12-08T08:39:42.001Z,2.055664
2022-12-08T08:43:07.262Z,1.914673
2022-12-08T08:46:32.643Z,2.025452
2022-12-08T08:49:57.848Z,2.015381
2022-12-08T08:53:23.140Z,2.065735
2022-12-08T08:56:48.380Z,2.045593
2022-12-08T09:00:13.669Z,1.995239
2022-12-08T09:03:38.944Z,2.025452
2022-12-08T09:07:04.173Z,1.995239
2022-12-08T09:10:29.453Z,1.975098
2022-12-08T09:13:54.766Z,2.015381
2022-12-08T09:17:20.016Z,2.095947
2022-12-08T09:20:45.317Z,2.156372
2022-12-08T09:24:10.616Z,2.247009
2022-12-08T09:27:35.900Z,2.277222
2022-12-08T09:31:01.211Z,2.307434
2022-12-08T09:34:26.510Z,2.226868
2022-12-08T09:37:51.817Z,2.196655
2022-12-08T09:41:17.064Z,2.277222
2022-12-08T09:44:42.329Z,2.37793
2022-12-08T09:48:07.686Z,2.337646
2022-12-08T09:51:32.923Z,2.166443
2022-12-08T09:54:58.198Z,2.156372
2022-12-08T09:58:23.393Z,2.236938
2022-12-08T10:01:48.724Z,2.206726
2022-12-08T10:05:13.989Z,2.226868
2022-12-08T10:08:39.159Z,2.156372
2022-12-08T10:12:04.426Z,2.166443
2022-12-08T10:15:29.645Z,1.995239
2022-12-08T10:18:54.892Z,1.995239
2022-12-08T10:22:20.134Z,2.055664
2022-12-08T10:25:45.375Z,2.13623
2022-12-08T10:29:10.742Z,2.226868
2022-12-08T10:32:35.953Z,2.347717
2022-12-08T10:36:01.214Z,2.277222
2022-12-08T10:39:26.466Z,2.277222
2022-12-08T10:42:51.694Z,2.307434
2022-12-08T10:46:16.960Z,2.357788
2022-12-08T10:49:42.180Z,2.337646
2022-12-08T10:53:07.428Z,2.347717
2022-12-08T10:56:32.673Z,2.347717
2022-12-08T10:59:57.957Z,2.347717
2022-12-08T11:03:23.245Z,2.236938
2022-12-08T11:06:48.489Z,2.226868
2022-12-08T11:10:13.743Z,2.277222
2022-12-08T11:13:39.001Z,2.347717
2022-12-08T11:17:04.316Z,2.408142
2022-12-08T11:20:29.529Z,2.458496
2022-12-08T11:23:54.749Z,2.539062
2022-12-08T11:27:19.995Z,2.669983
2022-12-08T11:30:45.225Z,2.740479
2022-12-08T11:34:10.500Z,2.669983
2022-12-08T11:37:35.749Z,2.589417
2022-12-08T11:41:00.972Z,2.478638
2022-12-08T11:44:26.259Z,2.458496
2022-12-08T11:47:55.723Z,2.458496
2022-12-08T11:51:16.749Z,2.539062
2022-12-08T11:54:42.021Z,2.559204
2022-12-08T11:58:07.306Z,2.518921
2022-12-08T12:01:32.621Z,2.418213
2022-12-08T12:04:57.798Z,2.418213
2022-12-08T12:08:23.136Z,2.337646
2022-12-08T12:11:48.363Z,2.418213
2022-12-08T12:15:13.602Z,2.448425
2022-12-08T12:19:27.156Z,2.408142
2022-12-08T12:22:52.369Z,2.559204
2022-12-08T12:26:17.627Z,2.589417
2022-12-08T12:29:42.929Z,2.539062
2022-12-08T12:33:08.178Z,2.528992
2022-12-08T12:36:33.428Z,2.518921
2022-12-08T12:39:58.696Z,2.569275
2022-12-08T12:43:23.967Z,2.589417
2022-12-08T12:46:49.258Z,2.589417
2022-12-08T12:50:14.507Z,2.478638
2022-12-08T12:53:39.768Z,2.37793
2022-12-08T12:57:05.065Z,2.347717
2022-12-08T13:00:30.333Z,2.347717
2022-12-08T13:03:55.604Z,2.388
2022-12-08T13:07:20.852Z,2.478638
2022-12-08T13:10:46.108Z,2.539062
2022-12-08T13:14:11.380Z,2.569275
2022-12-08T13:17:36.611Z,2.690125
2022-12-08T13:21:01.889Z,2.740479
2022-12-08T13:24:27.131Z,2.710266
2022-12-08T13:27:52.464Z,2.669983
2022-12-08T13:31:17.846Z,2.609558
2022-12-08T13:34:43.064Z,2.690125
2022-12-08T13:38:08.329Z,2.669983
2022-12-08T13:41:33.579Z,2.659912
2022-12-08T13:48:42.542Z,2.690125
2022-12-08T13:53:34.358Z,2.659912
2022-12-08T13:58:39.820Z,2.528992
2022-12-08T14:02:05.087Z,2.478638
2022-12-08T14:06:03.127Z,2.478638
2022-12-08T14:09:01.451Z,2.418213
2022-12-08T14:12:22.564Z,2.478638
2022-12-08T14:15:47.957Z,2.528992
2022-12-08T14:19:13.741Z,2.518921
2022-12-08T14:22:39.315Z,2.488708
2022-12-08T14:26:04.578Z,2.478638
2022-12-08T14:29:29.947Z,2.518921
2022-12-08T15:04:49.945Z,2.488708
2022-12-08T15:08:15.395Z,2.388
2022-12-08T15:11:40.683Z,2.408142
2022-12-08T15:15:06.086Z,2.307434
2022-12-08T15:18:31.468Z,2.347717
2022-12-08T15:21:56.884Z,2.337646
2022-12-08T15:25:22.218Z,2.347717
2022-12-08T15:28:47.571Z,2.337646
2022-12-08T15:32:12.907Z,2.337646
2022-12-08T15:35:40.850Z,2.277222
2022-12-08T15:39:03.621Z,2.226868
2022-12-08T15:42:28.843Z,2.247009
2022-12-08T15:45:59.320Z,2.297363
2022-12-08T15:49:19.525Z,2.267151
2022-12-08T15:52:44.885Z,2.206726
2022-12-08T15:56:27.213Z,2.267151
2022-12-08T15:59:38.046Z,2.247009
2022-12-08T16:03:42.465Z,2.307434
2022-12-08T16:07:19.495Z,2.478638
2022-12-08T16:10:21.197Z,2.569275
2022-12-08T16:13:57.731Z,2.6297
2022-12-08T16:17:20.933Z,2.6297
2022-12-08T16:24:11.805Z,2.539062
2022-12-08T16:31:02.321Z,2.307434
2022-12-08T16:34:27.528Z,2.267151
2022-12-08T16:37:52.796Z,2.176514
2022-12-08T16:41:18.093Z,2.095947
2022-12-08T16:44:43.347Z,2.065735
2022-12-08T16:48:08.641Z,2.015381
2022-12-08T16:51:33.893Z,2.025452
2022-12-08T16:54:59.501Z,2.025452
2022-12-08T16:58:26.666Z,1.975098
2022-12-08T17:01:52.054Z,1.995239
2022-12-08T17:05:17.390Z,2.065735
2022-12-08T17:08:44.902Z,2.055664
2022-12-08T17:12:10.152Z,1.934814
2022-12-08T17:15:35.754Z,1.813965
2022-12-08T17:19:01.026Z,1.703186
2022-12-08T17:22:26.561Z,1.693115
2022-12-08T17:25:51.542Z,1.723328
2022-12-08T17:29:16.796Z,1.662903
2022-12-08T17:32:42.036Z,1.542053
2022-12-08T17:36:07.301Z,1.511841
2022-12-08T17:39:32.562Z,1.411133
2022-12-08T17:42:57.862Z,1.411133
2022-12-08T17:46:23.149Z,1.330566
2022-12-08T17:49:48.349Z,1.511841
2022-12-08T17:53:13.578Z,1.582336
2022-12-08T17:56:38.872Z,1.521912
2022-12-08T18:00:04.332Z,1.511841
2022-12-08T18:03:29.332Z,1.592407
2022-12-08T18:06:54.575Z,1.662903
2022-12-08T18:10:19.815Z,1.773682
2022-12-08T18:13:45.076Z,1.844177
2022-12-08T18:17:10.367Z,1.87439
2022-12-08T18:20:35.556Z,1.934814
2022-12-08T18:24:00.801Z,1.975098
2022-12-08T18:27:26.032Z,1.975098
2022-12-08T18:30:51.438Z,1.88446
2022-12-08T18:34:16.564Z,1.88446
2022-12-08T18:37:41.844Z,1.813965
2022-12-08T18:41:07.083Z,1.813965
2022-12-08T18:44:32.372Z,1.864319
2022-12-08T18:47:57.635Z,1.733398
2022-12-08T18:51:22.862Z,1.683044
2022-12-08T18:55:05.590Z,1.703186
2022-12-08T18:58:13.372Z,1.803894
2022-12-08T19:01:38.720Z,1.723328
2022-12-08T19:05:03.895Z,1.793823
2022-12-08T19:08:31.452Z,1.793823
2022-12-08T19:11:54.333Z,1.834106
2022-12-08T19:15:19.579Z,1.844177
2022-12-08T19:18:44.823Z,1.904602
2022-12-08T19:22:10.074Z,1.88446
2022-12-08T19:25:35.295Z,1.904602
2022-12-08T19:29:00.566Z,1.975098
2022-12-08T19:32:25.805Z,2.065735
2022-12-08T19:35:52.811Z,1.985168
2022-12-08T19:39:16.311Z,1.934814
2022-12-08T19:42:41.529Z,1.934814
2022-12-08T19:46:06.908Z,2.045593
2022-12-08T19:49:32.053Z,2.085876
2022-12-08T19:52:57.396Z,2.085876
2022-12-08T19:56:22.902Z,2.13623
2022-12-08T19:59:51.718Z,2.196655
2022-12-08T20:03:13.508Z,2.196655
2022-12-08T20:06:38.944Z,2.13623
2022-12-08T20:10:04.838Z,2.156372
2022-12-08T20:13:29.629Z,2.085876
2022-12-08T20:16:55.057Z,2.025452
2022-12-08T20:20:20.420Z,2.065735
2022-12-08T20:23:45.730Z,2.055664
2022-12-08T20:27:11.131Z,2.065735
2022-12-08T20:30:36.861Z,2.085876
2022-12-08T20:34:02.093Z,2.045593
2022-12-08T20:37:27.568Z,1.954956
2022-12-08T20:40:52.935Z,1.844177
2022-12-08T20:44:18.284Z,1.703186
2022-12-08T20:47:43.544Z,1.773682
2022-12-08T20:51:08.941Z,1.834106
2022-12-08T20:54:34.357Z,1.834106
2022-12-08T20:57:59.706Z,1.733398
2022-12-08T21:01:25.215Z,1.813965
2022-12-08T21:04:50.483Z,1.803894
2022-12-08T21:08:15.840Z,1.88446
2022-12-08T21:11:41.004Z,1.904602
2022-12-08T21:15:06.345Z,2.045593
2022-12-08T21:18:35.960Z,2.085876
2022-12-08T21:21:56.809Z,2.156372
2022-12-08T21:25:22.065Z,2.116089
2022-12-08T21:28:47.323Z,2.065735
2022-12-08T21:32:12.768Z,2.13623
2022-12-08T21:35:37.923Z,2.065735
2022-12-08T21:39:03.145Z,2.085876
2022-12-08T21:42:33.839Z,2.156372
2022-12-08T21:45:53.614Z,2.206726
2022-12-08T21:49:18.920Z,2.226868
2022-12-08T21:52:44.144Z,2.176514
2022-12-08T21:56:09.508Z,2.156372
2022-12-08T21:59:34.738Z,2.085876
2022-12-08T22:03:00.049Z,2.085876
2022-12-08T22:06:25.155Z,2.045593
2022-12-08T22:09:50.638Z,1.995239
2022-12-08T22:13:15.825Z,1.954956
2022-12-08T22:16:41.034Z,2.015381
2022-12-08T22:20:06.582Z,1.985168
2022-12-08T22:23:32.289Z,1.934814
2022-12-08T22:26:58.340Z,1.87439
2022-12-08T22:30:24.544Z,1.813965
2022-12-08T22:33:50.582Z,1.793823
2022-12-08T22:37:16.750Z,1.834106
2022-12-08T22:40:42.895Z,1.834106
2022-12-08T22:44:09.069Z,1.844177
2022-12-08T22:47:35.230Z,1.813965
2022-12-08T22:51:01.402Z,1.793823
2022-12-08T22:54:27.550Z,1.763611
2022-12-08T22:57:53.221Z,1.803894
2022-12-08T23:01:18.597Z,1.813965
2022-12-08T23:04:43.787Z,1.834106
2022-12-08T23:08:08.961Z,1.844177
2022-12-08T23:11:34.160Z,1.954956
2022-12-08T23:14:59.521Z,1.914673
2022-12-08T23:18:24.845Z,1.954956
2022-12-08T23:21:50.300Z,1.975098
2022-12-08T23:25:15.358Z,1.914673
2022-12-08T23:28:40.656Z,1.934814
2022-12-08T23:32:06.031Z,2.045593
2022-12-08T23:35:31.143Z,2.116089
2022-12-08T23:38:56.547Z,2.156372
2022-12-08T23:42:21.691Z,2.156372
2022-12-08T23:45:47.032Z,2.247009
2022-12-08T23:49:12.416Z,2.236938
2022-12-08T23:52:39.466Z,2.176514
2022-12-08T23:56:02.805Z,2.116089
2022-12-08T23:59:27.947Z,2.085876
